Time;durP1;ratioP1;P1;durP2;ratioP2;P2;SDS_P1;SDS_P2;PMS_P1;PMS_P2;Temp;Humidity;BMP_temperature;BMP_pressure;BME280_temperature;BME280_humidity;BME280_pressure;Samples;Min_cycle;Max_cycle;Signal;HPM_P1;HPM_P2
2023/06/26 00:00:11;;;;;;;5.63;2.28;;;;;;;26.32;53.44;98276.41;5033885;28;20048;-74
2023/06/26 00:02:37;;;;;;;4.57;2.10;;;;;;;26.29;53.34;98271.53;5034112;28;20033;-74
2023/06/26 00:05:02;;;;;;;6.47;2.03;;;;;;;26.28;53.02;98271.75;5035084;28;20496;-74
2023/06/26 00:07:33;;;;;;;5.30;2.00;;;;;;;26.29;53.27;98279.56;5050522;28;20104;-74
2023/06/26 00:09:59;;;;;;;4.60;2.10;;;;;;;26.29;52.91;98268.03;5034224;28;20070;-74
2023/06/26 00:12:25;;;;;;;4.03;2.05;;;;;;;26.26;53.09;98265.81;5050572;28;20084;-74
2023/06/26 00:14:50;;;;;;;3.33;1.90;;;;;;;26.27;53.24;98264.78;5033769;28;20030;-74
2023/06/26 00:17:16;;;;;;;4.00;2.05;;;;;;;26.27;53.15;98260.25;5033803;28;20037;-74
2023/06/26 00:19:41;;;;;;;7.78;2.00;;;;;;;26.28;52.92;98258.38;5033670;28;20036;-74
2023/06/26 00:22:07;;;;;;;4.78;1.77;;;;;;;26.19;52.82;98247.22;5035078;28;20038;-74
2023/06/26 00:24:32;;;;;;;4.28;1.67;;;;;;;26.22;52.58;98253.94;5033480;28;20044;-74
2023/06/26 00:26:58;;;;;;;5.20;1.77;;;;;;;26.20;52.46;98248.03;5034507;28;20044;-74
2023/06/26 00:29:24;;;;;;;3.65;1.58;;;;;;;26.15;52.25;98243.34;5034336;28;20063;-74
2023/06/26 00:31:49;;;;;;;2.78;1.60;;;;;;;26.18;52.61;98250.94;5032146;28;20030;-74
2023/06/26 00:34:15;;;;;;;6.20;1.70;;;;;;;26.16;52.46;98261.06;5033295;28;20448;-74
2023/06/26 00:36:43;;;;;;;6.05;1.80;;;;;;;26.13;52.28;98259.63;5033182;28;20029;-74
2023/06/26 00:39:09;;;;;;;4.65;1.65;;;;;;;26.12;52.50;98259.88;5032923;28;20400;-74
2023/06/26 00:41:38;;;;;;;2.40;1.40;;;;;;;26.06;52.61;98255.44;5049759;28;20033;-74
2023/06/26 00:44:04;;;;;;;4.55;1.60;;;;;;;26.08;52.79;98259.53;5032884;28;20045;-74
2023/06/26 00:46:30;;;;;;;2.88;1.48;;;;;;;26.05;52.49;98259.97;5032959;28;20044;-74
2023/06/26 00:48:55;;;;;;;2.75;1.40;;;;;;;26.09;52.90;98265.66;5049751;28;20037;-73
2023/06/26 00:51:21;;;;;;;2.95;1.30;;;;;;;26.08;52.73;98275.56;5033017;28;20067;-74
2023/06/26 00:53:46;;;;;;;2.97;1.48;;;;;;;26.08;52.94;98269.41;5032807;28;20065;-74
2023/06/26 00:56:12;;;;;;;2.03;1.30;;;;;;;26.06;52.78;98271.47;5032714;28;20040;-74
2023/06/26 00:58:37;;;;;;;2.92;1.23;;;;;;;26.04;53.19;98271.72;5032734;28;20481;-73
2023/06/26 01:01:05;;;;;;;3.38;1.38;;;;;;;26.05;52.80;98265.31;5032652;28;20033;-76
2023/06/26 01:03:31;;;;;;;;;;;;;;;26.06;52.68;98264.28;5033020;28;20040;-74
2023/06/26 01:05:56;;;;;;;3.28;1.40;;;;;;;26.02;52.84;98251.59;5032893;28;19909;-74
2023/06/26 01:08:22;;;;;;;2.03;1.23;;;;;;;25.98;52.74;98237.84;5032729;28;20026;-73
2023/06/26 01:10:48;;;;;;;2.90;1.45;;;;;;;26.05;52.87;98253.81;5032482;28;20030;-74
2023/06/26 01:13:13;;;;;;;4.03;1.80;;;;;;;26.03;52.85;98247.88;5032382;28;20473;-74
2023/06/26 01:15:39;;;;;;;3.50;1.50;;;;;;;26.01;52.68;98248.09;5032678;28;20108;-74
2023/06/26 01:18:05;;;;;;;2.80;1.40;;;;;;;26.00;53.06;98244.63;5032282;28;20036;-76
2023/06/26 01:20:32;;;;;;;5.65;1.70;;;;;;;25.97;52.84;98226.34;5032100;28;20034;-74
2023/06/26 01:23:22;;;;;;;3.10;1.50;;;;;;;25.97;53.19;98231.69;5032279;28;20113;-74
2023/06/26 01:26:26;;;;;;;3.17;1.67;;;;;;;25.95;52.97;98225.75;5030866;28;20038;-74
2023/06/26 01:28:51;;;;;;;4.88;1.50;;;;;;;25.90;53.10;98216.75;5027009;28;20489;-74
2023/06/26 01:31:17;;;;;;;2.80;1.40;;;;;;;25.90;52.98;98212.25;4998158;28;20124;-74
2023/06/26 01:33:42;;;;;;;3.75;1.60;;;;;;;25.88;52.72;98210.84;5014648;28;20116;-74
2023/06/26 01:36:08;;;;;;;3.33;1.58;;;;;;;25.84;53.13;98215.84;4998144;28;20041;-74
2023/06/26 01:38:34;;;;;;;4.60;1.65;;;;;;;25.80;53.09;98198.63;4998268;28;20057;-74
2023/06/26 01:41:00;;;;;;;2.83;1.40;;;;;;;25.79;52.77;98203.16;5014484;28;20458;-73
2023/06/26 01:43:54;;;;;;;2.85;1.52;;;;;;;25.77;52.68;98199.06;4997730;28;20045;-74
2023/06/26 01:46:31;;;;;;;2.67;1.40;;;;;;;25.73;52.30;98197.88;5000572;28;20128;-74
2023/06/26 01:49:14;;;;;;;3.25;1.48;;;;;;;25.71;52.66;98210.69;4999048;28;20443;-74
2023/06/26 01:51:52;;;;;;;3.83;1.40;;;;;;;25.69;52.46;98210.91;5014996;28;20029;-74
2023/06/26 01:54:19;;;;;;;2.25;1.20;;;;;;;25.66;52.35;98207.88;4999463;28;20393;-74
2023/06/26 01:56:45;;;;;;;2.10;1.30;;;;;;;25.66;52.51;98219.38;4998435;28;20037;-74
2023/06/26 01:59:11;;;;;;;2.25;1.17;;;;;;;25.64;52.15;98219.59;4998192;28;20061;-74
2023/06/26 02:01:37;;;;;;;2.17;1.13;;;;;;;25.63;52.15;98222.50;4997971;28;20033;-74
2023/06/26 02:04:03;;;;;;;2.63;1.20;;;;;;;25.62;52.57;98219.03;5031506;28;20032;-74
2023/06/26 02:06:28;;;;;;;3.38;1.20;;;;;;;25.64;52.39;98226.81;5031566;28;20033;-74
2023/06/26 02:08:56;;;;;;;5.15;1.40;;;;;;;25.63;52.25;98219.81;5048337;28;20033;-74
2023/06/26 02:11:21;;;;;;;;;;;;;;;25.63;52.32;98226.00;5048458;28;20025;-74
2023/06/26 02:13:47;;;;;;;2.30;0.95;;;;;;;25.59;52.26;98224.81;5031629;28;19944;-74
2023/06/26 02:16:12;;;;;;;1.65;1.02;;;;;;;25.59;52.64;98230.16;5032738;28;20063;-74
2023/06/26 02:18:38;;;;;;;6.18;1.33;;;;;;;25.55;52.60;98230.84;5048254;28;20416;-74
2023/06/26 02:21:04;;;;;;;2.20;1.00;;;;;;;25.54;52.33;98234.53;5048090;28;20049;-74
2023/06/26 02:23:29;;;;;;;5.05;1.25;;;;;;;25.53;52.54;98240.94;5032957;28;20037;-74
2023/06/26 02:25:55;;;;;;;4.90;1.30;;;;;;;25.55;52.41;98247.69;5031451;28;20029;-74
2023/06/26 02:28:20;;;;;;;3.47;1.42;;;;;;;25.58;52.65;98254.44;5031137;28;20056;-74
2023/06/26 02:30:46;;;;;;;2.17;1.10;;;;;;;25.56;52.34;98240.50;5031349;28;20408;-74
2023/06/26 02:33:11;;;;;;;2.58;1.25;;;;;;;25.57;52.57;98244.78;5031291;28;20082;-74
2023/06/26 02:35:37;;;;;;;2.05;1.00;;;;;;;25.55;52.54;98242.34;5030917;28;20072;-74
2023/06/26 02:38:02;;;;;;;2.90;1.10;;;;;;;25.52;52.36;98233.97;5031404;28;20037;-74
2023/06/26 02:40:27;;;;;;;2.75;1.33;;;;;;;25.52;52.53;98234.78;5031244;28;20401;-74
2023/06/26 02:42:53;;;;;;;2.60;1.00;;;;;;;25.53;52.54;98240.94;5047668;28;20061;-74
2023/06/26 02:45:18;;;;;;;2.25;1.17;;;;;;;25.48;52.33;98236.28;5031012;28;20040;-74
2023/06/26 02:47:44;;;;;;;1.98;0.98;;;;;;;25.51;52.63;98235.84;5047508;28;20102;-74
2023/06/26 02:50:09;;;;;;;2.25;1.20;;;;;;;25.50;52.48;98246.75;5032448;28;20033;-74
2023/06/26 02:52:35;;;;;;;2.10;1.02;;;;;;;25.49;52.85;98237.88;5047286;28;20041;-74
2023/06/26 02:55:00;;;;;;;3.00;1.25;;;;;;;25.46;52.64;98244.53;5030661;28;20025;-74
2023/06/26 02:57:26;;;;;;;2.33;1.30;;;;;;;25.45;53.17;98245.56;5031170;28;20120;-74
2023/06/26 02:59:51;;;;;;;2.58;1.45;;;;;;;25.42;53.25;98229.16;5032193;28;20036;-74
2023/06/26 03:02:17;;;;;;;2.78;1.35;;;;;;;25.42;53.06;98234.50;5030883;28;20033;-74
2023/06/26 03:04:43;;;;;;;2.72;1.10;;;;;;;25.38;53.24;98242.16;5047359;28;20405;-74
2023/06/26 03:07:08;;;;;;;3.03;1.13;;;;;;;25.38;53.35;98239.50;5047360;28;20045;-74
2023/06/26 03:09:34;;;;;;;4.65;1.30;;;;;;;25.38;53.52;98242.16;5047492;28;20025;-74
2023/06/26 03:11:59;;;;;;;4.35;1.23;;;;;;;25.41;53.40;98249.72;5031014;28;20036;-74
2023/06/26 03:14:26;;;;;;;2.15;1.25;;;;;;;25.35;53.83;98247.13;5032127;28;20481;-74
2023/06/26 03:16:52;;;;;;;2.35;1.25;;;;;;;25.40;53.75;98252.63;5047182;28;20076;-74
2023/06/26 03:19:18;;;;;;;2.20;1.40;;;;;;;25.38;53.44;98255.53;5047218;28;20037;-73
2023/06/26 03:21:43;;;;;;;2.72;1.48;;;;;;;25.36;53.33;98256.78;5047623;28;20444;-73
2023/06/26 03:24:09;;;;;;;4.00;1.40;;;;;;;25.38;53.35;98260.03;5030586;28;20029;-74
2023/06/26 03:26:34;;;;;;;3.10;1.80;;;;;;;25.34;53.11;98254.31;5030595;28;20049;-73
2023/06/26 03:29:00;;;;;;;2.90;1.38;;;;;;;25.37;53.32;98259.22;5031897;28;20045;-74
2023/06/26 03:31:25;;;;;;;2.88;1.55;;;;;;;25.38;53.16;98258.19;5031773;28;20052;-73
2023/06/26 03:33:51;;;;;;;2.00;1.42;;;;;;;25.38;53.44;98252.03;5030666;28;20087;-73
2023/06/26 03:36:16;;;;;;;4.22;1.65;;;;;;;25.39;53.17;98251.78;5047581;28;20176;-74
2023/06/26 03:38:42;;;;;;;3.83;1.70;;;;;;;25.44;53.36;98262.66;5030912;28;20385;-74
2023/06/26 03:41:07;;;;;;;3.88;1.67;;;;;;;25.43;53.45;98252.19;5031881;28;20017;-74
2023/06/26 03:43:33;;;;;;;5.07;1.75;;;;;;;25.45;53.56;98264.25;5030419;28;20057;-74
2023/06/26 03:45:58;;;;;;;3.97;1.80;;;;;;;25.46;53.56;98257.06;5029816;28;20048;-74
2023/06/26 03:48:24;;;;;;;3.83;1.80;;;;;;;25.45;53.77;98253.56;5031102;28;20053;-74
2023/06/26 03:50:49;;;;;;;3.30;2.03;;;;;;;25.42;53.38;98246.00;5029968;28;20030;-74
2023/06/26 03:53:15;;;;;;;3.92;1.83;;;;;;;25.49;53.47;98253.13;5047202;28;20041;-73
2023/06/26 03:55:40;;;;;;;3.80;2.42;;;;;;;25.48;53.89;98238.94;5046955;28;20041;-74
2023/06/26 03:58:06;;;;;;;6.43;1.98;;;;;;;25.50;53.45;98252.91;5031698;28;20087;-74
2023/06/26 04:00:31;;;;;;;4.00;2.00;;;;;;;25.51;53.77;98248.34;5031318;28;20029;-74
2023/06/26 04:02:57;;;;;;;6.43;2.45;;;;;;;25.51;53.49;98254.53;5031613;28;20044;-74
2023/06/26 04:05:23;;;;;;;8.90;2.50;;;;;;;25.46;53.66;98249.88;5032132;28;20401;-73
2023/06/26 04:07:54;;;;;;;5.93;2.50;;;;;;;25.48;53.66;98252.31;5033650;28;20041;-73
2023/06/26 04:10:21;;;;;;;5.65;2.90;;;;;;;25.45;53.66;98248.22;5033649;28;20037;-73
2023/06/26 04:12:47;;;;;;;4.70;2.90;;;;;;;25.46;53.39;98259.75;5050116;28;20060;-73
2023/06/26 04:15:13;;;;;;;4.45;2.58;;;;;;;25.49;53.27;98259.28;5033411;28;20378;-73
2023/06/26 04:17:38;;;;;;;5.38;2.63;;;;;;;25.50;53.52;98254.75;5034897;28;20144;-73
2023/06/26 04:20:08;;;;;;;6.95;2.58;;;;;;;25.45;53.19;98250.91;5050525;28;20025;-73
2023/06/26 04:22:33;;;;;;;7.05;2.67;;;;;;;25.51;52.99;98251.03;5034182;28;20041;-74
2023/06/26 04:25:02;;;;;;;7.53;2.72;;;;;;;25.50;52.80;98244.06;5034725;28;20481;-74
2023/06/26 04:27:28;;;;;;;5.05;2.50;;;;;;;25.54;52.88;98258.59;5033497;28;20029;-74
2023/06/26 04:29:53;;;;;;;7.00;2.55;;;;;;;25.57;52.75;98260.81;5033407;28;20061;-73
2023/06/26 04:32:19;;;;;;;4.13;2.78;;;;;;;25.56;52.30;98260.00;5049713;28;20381;-74
2023/06/26 04:34:44;;;;;;;4.72;2.90;;;;;;;25.61;52.29;98254.78;5050116;28;20151;-73
2023/06/26 04:37:10;;;;;;;5.30;3.00;;;;;;;25.65;52.18;98265.88;5033220;28;20040;-74
2023/06/26 04:39:37;;;;;;;4.38;2.95;;;;;;;25.71;52.07;98264.13;5033152;28;20112;-74
2023/06/26 04:42:03;;;;;;;5.68;3.03;;;;;;;25.74;52.01;98277.84;5033158;28;20428;-73
2023/06/26 04:44:29;;;;;;;4.10;2.72;;;;;;;25.77;51.82;98273.91;5049817;28;20029;-73
2023/06/26 04:46:54;;;;;;;4.53;2.95;;;;;;;25.83;51.87;98278.38;5049471;28;20052;-73
2023/06/26 04:49:20;;;;;;;4.95;2.80;;;;;;;25.87;51.82;98282.22;5049349;28;20042;-73
2023/06/26 04:51:45;;;;;;;3.92;2.67;;;;;;;25.91;51.46;98291.41;5033104;28;20060;-73
2023/06/26 04:54:11;;;;;;;5.45;2.72;;;;;;;25.95;51.54;98286.41;5032910;28;20036;-73
2023/06/26 04:56:36;;;;;;;5.32;2.70;;;;;;;25.97;51.44;98285.19;5049342;28;20539;-73
2023/06/26 04:59:02;;;;;;;5.32;2.90;;;;;;;26.02;51.02;98289.84;5033941;28;20033;-73
2023/06/26 05:01:29;;;;;;;5.28;2.58;;;;;;;26.08;50.79;98294.28;5032932;28;20108;-75
2023/06/26 05:03:56;;;;;;;5.75;2.83;;;;;;;26.18;50.44;98297.22;5049303;28;20037;-74
2023/06/26 05:06:22;;;;;;;6.70;2.55;;;;;;;26.32;50.12;98303.16;5032754;28;20045;-75
2023/06/26 05:08:47;;;;;;;5.30;2.42;;;;;;;26.45;49.91;98301.34;5032570;28;20416;-74
2023/06/26 05:11:13;;;;;;;3.38;2.05;;;;;;;26.60;49.24;98308.91;5033620;28;20072;-75
2023/06/26 05:13:38;;;;;;;5.43;2.13;;;;;;;26.72;48.78;98315.13;5049367;28;20037;-76
2023/06/26 05:16:04;;;;;;;4.30;2.20;;;;;;;26.88;48.52;98316.28;5048633;28;20033;-74
2023/06/26 05:18:29;;;;;;;4.97;2.20;;;;;;;27.02;48.25;98315.00;5032318;28;20381;-75
2023/06/26 05:20:55;;;;;;;3.92;2.33;;;;;;;27.16;48.02;98318.25;5032480;28;20130;-76
2023/06/26 05:23:21;;;;;;;6.07;2.20;;;;;;;27.21;47.83;98310.31;5032344;28;20033;-75
2023/06/26 05:25:47;;;;;;;4.25;2.40;;;;;;;27.27;47.85;98313.91;5032406;28;20029;-75
2023/06/26 05:28:15;;;;;;;8.10;2.30;;;;;;;27.53;47.23;98317.16;5031899;28;20108;-77
2023/06/26 05:30:40;;;;;;;;;;;;;;;27.73;46.71;98306.81;5033107;28;20084;-75
2023/06/26 05:33:06;;;;;;;6.80;2.42;;;;;;;27.80;46.46;98317.44;5032815;28;20350;-75
2023/06/26 05:35:31;;;;;;;6.95;2.42;;;;;;;27.89;46.17;98313.28;5032263;28;20396;-74
2023/06/26 05:37:57;;;;;;;6.45;2.40;;;;;;;28.01;45.95;98310.59;5049306;28;20025;-75
2023/06/26 05:40:23;;;;;;;5.82;2.67;;;;;;;28.11;45.89;98312.63;5031952;28;20441;-75
2023/06/26 05:42:49;;;;;;;6.00;2.33;;;;;;;28.26;45.59;98309.38;5031595;28;20043;-75
2023/06/26 05:45:15;;;;;;;6.63;2.50;;;;;;;28.46;45.06;98316.97;5032107;28;20036;-74
2023/06/26 05:47:41;;;;;;;6.22;2.38;;;;;;;28.70;44.39;98314.97;5048882;28;20044;-75
2023/06/26 05:50:08;;;;;;;8.63;2.20;;;;;;;29.00;44.08;98314.63;5031846;28;20091;-76
2023/06/26 05:52:35;;;;;;;5.95;2.20;;;;;;;29.30;42.96;98318.78;5031846;28;20108;-74
2023/06/26 05:55:01;;;;;;;11.50;2.25;;;;;;;29.49;42.79;98313.91;5048249;28;20033;-75
2023/06/26 05:57:27;;;;;;;5.93;2.30;;;;;;;30.00;41.35;98302.94;5048541;28;20091;-76
2023/06/26 05:59:53;;;;;;;5.70;2.00;;;;;;;30.97;39.50;98312.88;5031650;28;20504;-75
2023/06/26 06:02:18;;;;;;;7.85;2.17;;;;;;;32.58;36.62;98313.09;5031900;28;20029;-75
2023/06/26 06:04:44;;;;;;;7.30;2.20;;;;;;;33.88;34.49;98312.44;5031669;28;20048;-75
2023/06/26 06:07:09;;;;;;;6.72;1.80;;;;;;;33.68;34.72;98313.31;5048572;28;20032;-75
2023/06/26 06:09:35;;;;;;;6.20;2.20;;;;;;;33.86;34.35;98320.03;5048124;28;20477;-76
2023/06/26 06:12:01;;;;;;;7.00;1.90;;;;;;;34.26;33.88;98304.63;5031183;28;20036;-76
2023/06/26 06:14:28;;;;;;;6.70;2.15;;;;;;;34.64;32.35;98312.16;5014992;28;20132;-75
2023/06/26 06:16:53;;;;;;;18.17;2.70;;;;;;;34.63;32.72;98311.34;5032887;28;20030;-75
2023/06/26 06:19:19;;;;;;;9.02;2.10;;;;;;;34.35;33.16;98313.75;5031571;28;20029;-75
2023/06/26 06:21:44;;;;;;;6.55;1.75;;;;;;;34.06;33.05;98316.38;5031461;28;20493;-77
2023/06/26 06:24:10;;;;;;;7.13;2.10;;;;;;;33.76;33.30;98326.28;5032465;28;20038;-76
2023/06/26 06:26:35;;;;;;;6.70;1.85;;;;;;;33.45;33.86;98323.72;5048133;28;20060;-77
2023/06/26 06:29:01;;;;;;;12.38;2.40;;;;;;;33.14;34.56;98331.09;5047145;28;20056;-78
2023/06/26 06:31:28;;;;;;;8.05;2.20;;;;;;;32.84;34.74;98319.28;5031407;28;20093;-75
2023/06/26 06:33:54;;;;;;;8.02;1.98;;;;;;;32.63;35.31;98327.41;5031588;28;20079;-77
2023/06/26 06:36:20;;;;;;;9.25;1.90;;;;;;;32.35;35.68;98325.25;5031434;28;20038;-73
2023/06/26 06:38:45;;;;;;;9.50;1.85;;;;;;;32.04;36.17;98335.97;5031637;28;20112;-76
2023/06/26 06:41:11;;;;;;;6.03;1.77;;;;;;;31.79;36.44;98328.66;5014476;28;20405;-76
2023/06/26 06:43:37;;;;;;;4.50;1.38;;;;;;;31.61;36.94;98341.50;5031259;28;20069;-76
2023/06/26 06:46:02;;;;;;;9.43;1.90;;;;;;;31.43;37.51;98340.06;5031063;28;20041;-75
2023/06/26 06:48:28;;;;;;;3.75;2.03;;;;;;;31.29;37.58;98349.72;5014973;28;20045;-76
2023/06/26 06:50:53;;;;;;;7.05;1.70;;;;;;;31.14;38.06;98343.16;5031220;28;20048;-76
2023/06/26 06:53:22;;;;;;;4.82;1.90;;;;;;;31.09;38.05;98351.25;5031245;28;20064;-76
2023/06/26 06:55:48;;;;;;;5.07;1.77;;;;;;;30.97;38.40;98351.41;5031389;28;20462;-77
2023/06/26 06:58:14;;;;;;;6.50;1.92;;;;;;;30.85;38.82;98354.28;5031139;28;20151;-76
2023/06/26 07:00:39;;;;;;;5.03;1.85;;;;;;;30.70;38.64;98348.78;5032388;28;20033;-76
2023/06/26 07:03:05;;;;;;;4.38;1.58;;;;;;;30.57;38.78;98351.91;5031218;28;20042;-75
2023/06/26 07:05:30;;;;;;;8.25;1.95;;;;;;;30.53;39.30;98356.19;5031098;28;20029;-76
2023/06/26 07:07:56;;;;;;;4.82;1.92;;;;;;;30.43;39.50;98355.03;5047542;28;20475;-77
2023/06/26 07:10:21;;;;;;;9.23;2.28;;;;;;;30.38;39.28;98362.22;5031160;28;20032;-77
2023/06/26 07:12:47;;;;;;;8.75;2.03;;;;;;;30.27;39.76;98353.25;5031075;28;20026;-76
2023/06/26 07:15:12;;;;;;;6.43;1.90;;;;;;;30.37;39.43;98357.91;5031201;28;20034;-76
2023/06/26 07:17:39;;;;;;;3.67;1.85;;;;;;;30.41;39.34;98359.88;5032124;28;20477;-76
2023/06/26 07:20:07;;;;;;;7.00;1.83;;;;;;;30.40;39.66;98357.44;5032538;28;20029;-76
2023/06/26 07:22:32;;;;;;;4.03;1.50;;;;;;;30.38;39.89;98355.00;5031116;28;20404;-77
2023/06/26 07:24:58;;;;;;;2.60;1.30;;;;;;;30.35;39.74;98362.72;5031005;28;20087;-76
2023/06/26 07:27:23;;;;;;;6.65;1.60;;;;;;;30.28;40.00;98354.84;5030838;28;20037;-76
2023/06/26 07:29:49;;;;;;;4.68;1.63;;;;;;;30.29;40.22;98367.25;5030945;28;20049;-76
2023/06/26 07:32:14;;;;;;;6.85;1.73;;;;;;;30.25;40.28;98382.28;5031916;28;20032;-75
2023/06/26 07:34:40;;;;;;;6.97;1.50;;;;;;;30.16;40.54;98376.56;5047272;28;20100;-74
2023/06/26 07:37:05;;;;;;;4.70;1.42;;;;;;;30.11;40.94;98373.81;5030548;28;20033;-77
2023/06/26 07:39:31;;;;;;;5.95;1.70;;;;;;;30.00;41.32;98378.28;5031267;28;20083;-77
2023/06/26 07:41:59;;;;;;;2.67;1.30;;;;;;;29.91;42.08;98385.97;5034867;28;20065;-76
2023/06/26 07:44:24;;;;;;;;;;;;;;;29.86;41.97;98379.75;5051822;28;20077;-76
2023/06/26 07:46:49;;;;;;;4.68;1.63;;;;;;;29.77;42.77;98374.75;5034686;28;20390;-76
2023/06/26 07:49:15;;;;;;;7.00;1.60;;;;;;;29.73;42.82;98375.50;5051086;28;20026;-76
2023/06/26 07:51:40;;;;;;;4.57;1.80;;;;;;;29.65;43.12;98375.94;5034315;28;20025;-75
2023/06/26 07:54:06;;;;;;;6.60;1.98;;;;;;;29.57;43.51;98388.78;5034064;28;20029;-75
2023/06/26 07:56:34;;;;;;;5.80;1.40;;;;;;;29.48;43.62;98384.09;5035604;28;20037;-75
2023/06/26 07:59:04;;;;;;;5.78;1.77;;;;;;;29.36;44.20;98384.19;5050578;28;20035;-74
2023/06/26 08:01:29;;;;;;;4.22;1.77;;;;;;;29.23;44.00;98385.34;5050256;28;20044;-76
2023/06/26 08:03:55;;;;;;;16.70;1.80;;;;;;;29.15;44.45;98399.19;5050744;28;20021;-74
2023/06/26 08:06:20;;;;;;;8.85;2.20;;;;;;;29.03;44.57;98392.03;5034023;28;20092;-75
2023/06/26 08:08:46;;;;;;;7.47;1.90;;;;;;;28.95;45.23;98391.63;5033869;28;20409;-77
2023/06/26 08:11:11;;;;;;;7.05;1.98;;;;;;;28.85;45.19;98405.72;5033820;28;20053;-75
2023/06/26 08:13:37;;;;;;;6.10;1.92;;;;;;;28.76;45.68;98402.59;5034961;28;20073;-75
2023/06/26 08:16:02;;;;;;;8.43;4.60;;;;;;;28.62;45.67;98394.09;5033887;28;20378;-77
2023/06/26 08:18:28;;;;;;;9.10;2.85;;;;;;;28.57;46.07;98406.56;5033911;28;20378;-76
2023/06/26 08:20:54;;;;;;;6.82;3.15;;;;;;;28.48;46.44;98403.44;5033844;28;20496;-74
2023/06/26 08:23:21;;;;;;;9.53;3.27;;;;;;;28.44;46.40;98399.63;5033402;28;20044;-76
2023/06/26 08:25:47;;;;;;;8.97;4.50;;;;;;;28.40;46.52;98398.47;5033746;28;20025;-76
2023/06/26 08:28:12;;;;;;;9.25;3.47;;;;;;;28.44;46.43;98410.38;5034562;28;20492;-75
2023/06/26 08:30:38;;;;;;;12.65;3.20;;;;;;;28.46;46.39;98405.56;5033341;28;20124;-77
2023/06/26 08:33:03;;;;;;;6.47;3.28;;;;;;;28.50;46.17;98395.97;5033315;28;20041;-77
2023/06/26 08:35:29;;;;;;;6.07;2.97;;;;;;;28.56;46.30;98403.06;5033282;28;20041;-76
2023/06/26 08:37:54;;;;;;;4.88;2.83;;;;;;;28.63;46.00;98397.56;5032971;28;20406;-75
2023/06/26 08:40:20;;;;;;;9.80;2.97;;;;;;;28.66;46.28;98402.44;5050023;28;20033;-75
2023/06/26 08:42:46;;;;;;;5.07;3.95;;;;;;;28.70;46.47;98406.25;5033183;28;20037;-75
2023/06/26 08:45:12;;;;;;;6.43;3.70;;;;;;;28.75;46.70;98405.53;5033012;28;20041;-75
2023/06/26 08:47:37;;;;;;;5.07;3.70;;;;;;;28.78;46.60;98397.00;5033108;28;20029;-75
2023/06/26 08:50:12;;;;;;;4.63;3.20;;;;;;;28.95;46.63;98405.06;5033123;28;20083;-75
2023/06/26 08:52:53;;;;;;;7.22;3.58;;;;;;;29.19;45.88;98400.34;5049519;28;20037;-77
2023/06/26 08:55:19;;;;;;;6.38;4.40;;;;;;;29.36;45.72;98392.25;5033373;28;20029;-77
2023/06/26 08:57:44;;;;;;;4.88;3.05;;;;;;;29.63;45.53;98392.31;5032945;28;20397;-75
2023/06/26 09:00:10;;;;;;;5.07;2.78;;;;;;;29.84;45.20;98393.44;5033166;28;20041;-75
2023/06/26 09:02:36;;;;;;;5.20;2.60;;;;;;;30.03;44.39;98385.84;5032815;28;20346;-74
2023/06/26 09:05:03;;;;;;;3.33;2.20;;;;;;;30.19;43.34;98391.38;5032950;28;20047;-75
2023/06/26 09:07:28;;;;;;;3.13;1.90;;;;;;;30.37;43.08;98382.94;5033139;28;20041;-76
2023/06/26 09:09:54;;;;;;;3.60;1.60;;;;;;;30.56;42.78;98386.09;5032915;28;20132;-74
2023/06/26 09:12:20;;;;;;;4.78;1.45;;;;;;;30.72;42.93;98388.94;5032614;28;20033;-75
2023/06/26 09:14:45;;;;;;;3.83;1.80;;;;;;;30.94;42.16;98386.13;5032469;28;20087;-74
2023/06/26 09:17:12;;;;;;;3.15;1.50;;;;;;;31.26;41.83;98390.69;5032632;28;20451;-75
2023/06/26 09:19:38;;;;;;;2.10;1.13;;;;;;;31.44;40.44;98389.41;5032914;28;20036;-74
2023/06/26 09:22:04;;;;;;;2.60;1.48;;;;;;;31.67;40.99;98394.41;5032436;28;20647;-75
2023/06/26 09:24:30;;;;;;;2.85;1.33;;;;;;;31.74;40.04;98386.91;5033711;28;20037;-77
2023/06/26 09:26:55;;;;;;;1.98;1.30;;;;;;;31.89;39.76;98393.44;5032402;28;20091;-75
2023/06/26 09:29:21;;;;;;;3.25;1.10;;;;;;;31.94;40.12;98398.84;5048818;28;20463;-76
2023/06/26 09:31:46;;;;;;;3.75;1.13;;;;;;;31.97;39.68;98401.00;5032201;28;20072;-75
2023/06/26 09:34:12;;;;;;;2.80;1.45;;;;;;;31.95;39.70;98397.75;5032446;28;20103;-75
2023/06/26 09:36:37;;;;;;;2.53;1.27;;;;;;;31.89;39.54;98396.94;5033467;28;20029;-77
2023/06/26 09:39:04;;;;;;;1.85;1.20;;;;;;;31.87;39.54;98396.38;5016115;28;20033;-75
2023/06/26 09:41:30;;;;;;;2.30;1.10;;;;;;;31.89;39.27;98410.41;5032196;28;20477;-76
2023/06/26 09:43:57;;;;;;;2.03;1.35;;;;;;;31.92;39.23;98406.41;5033212;28;20108;-75
2023/06/26 09:46:29;;;;;;;2.07;0.90;;;;;;;31.96;39.15;98407.50;5031952;28;20022;-76
2023/06/26 09:49:13;;;;;;;2.47;1.23;;;;;;;32.01;38.86;98406.69;5032007;28;20272;-76
2023/06/26 09:51:40;;;;;;;2.30;1.15;;;;;;;32.08;38.96;98407.25;5048726;28;20477;-77
2023/06/26 09:54:05;;;;;;;2.70;1.17;;;;;;;32.09;38.47;98400.81;5048422;28;20029;-76
2023/06/26 09:56:32;;;;;;;1.90;1.10;;;;;;;32.14;38.61;98411.63;5048661;28;20570;-75
2023/06/26 09:59:01;;;;;;;5.32;1.27;;;;;;;32.12;37.88;98402.97;5048246;28;20033;-76
2023/06/26 10:01:27;;;;;;;3.80;1.27;;;;;;;32.16;38.12;98409.44;5047903;28;20117;-78
2023/06/26 10:03:53;;;;;;;2.03;1.00;;;;;;;32.25;38.25;98418.66;5032097;28;20113;-76
2023/06/26 10:06:20;;;;;;;2.25;1.05;;;;;;;32.37;37.92;98417.59;5031711;28;20030;-76
2023/06/26 10:08:45;;;;;;;2.07;1.10;;;;;;;32.46;37.62;98414.09;5048128;28;20423;-77
2023/06/26 10:11:14;;;;;;;2.70;1.20;;;;;;;32.53;37.47;98404.91;5031586;28;20345;-75
2023/06/26 10:13:41;;;;;;;1.80;1.13;;;;;;;32.60;37.20;98403.56;5031348;28;20515;-78
2023/06/26 10:16:07;;;;;;;5.05;1.85;;;;;;;32.69;36.97;98403.88;5031334;28;20038;-76
2023/06/26 10:18:32;;;;;;;3.30;1.60;;;;;;;32.78;36.63;98393.34;5031337;28;20118;-76
2023/06/26 10:20:58;;;;;;;5.47;1.70;;;;;;;32.89;36.37;98394.94;5014911;28;20029;-76
2023/06/26 10:23:23;;;;;;;5.15;1.80;;;;;;;32.97;36.57;98391.72;5031142;28;20029;-76
2023/06/26 10:25:49;;;;;;;5.72;1.70;;;;;;;33.05;36.68;98395.75;5031345;28;20037;-76
2023/06/26 10:28:14;;;;;;;4.43;1.30;;;;;;;33.14;36.39;98388.69;5031274;28;20493;-75
2023/06/26 10:30:40;;;;;;;3.67;1.40;;;;;;;33.26;36.72;98390.34;5031477;28;20099;-75
2023/06/26 10:33:07;;;;;;;4.90;1.90;;;;;;;33.32;36.41;98383.81;5031437;28;20137;-77
2023/06/26 10:35:32;;;;;;;2.95;1.70;;;;;;;33.35;36.44;98385.97;5031363;28;20460;-74
2023/06/26 10:38:03;;;;;;;3.08;1.80;;;;;;;33.41;36.39;98390.28;5031497;28;20040;-76
2023/06/26 10:40:30;;;;;;;3.28;1.58;;;;;;;33.46;36.43;98384.03;5031327;28;20448;-75
2023/06/26 10:43:06;;;;;;;7.60;1.52;;;;;;;33.50;36.06;98374.31;5031321;28;20381;-76
2023/06/26 10:45:32;;;;;;;3.20;1.95;;;;;;;33.60;36.16;98370.75;5030988;28;20459;-75
2023/06/26 10:47:57;;;;;;;4.07;1.75;;;;;;;33.72;35.57;98366.66;5030724;28;20060;-76
2023/06/26 10:50:28;;;;;;;4.57;1.85;;;;;;;33.84;35.55;98370.91;5048007;28;20109;-75
2023/06/26 10:53:24;;;;;;;5.05;2.20;;;;;;;33.96;35.20;98363.28;5030921;28;20043;-76
2023/06/26 10:55:56;;;;;;;3.38;1.60;;;;;;;34.03;34.78;98373.78;5032393;28;20029;-76
2023/06/26 10:58:44;;;;;;;5.32;1.85;;;;;;;34.04;34.51;98361.88;5047756;28;20033;-75
2023/06/26 11:01:23;;;;;;;3.33;1.83;;;;;;;34.09;34.71;98369.97;5031119;28;20116;-77
2023/06/26 11:03:55;;;;;;;3.40;1.85;;;;;;;34.09;34.76;98364.56;5047947;28;20034;-78
2023/06/26 11:06:21;;;;;;;3.28;1.83;;;;;;;34.11;34.33;98370.53;5030980;28;20040;-76
2023/06/26 11:08:51;;;;;;;3.33;2.13;;;;;;;34.11;34.34;98366.97;5031142;28;20124;-77
2023/06/26 11:11:17;;;;;;;4.15;1.88;;;;;;;34.01;34.12;98352.41;5030907;28;20459;-75
2023/06/26 11:13:42;;;;;;;3.55;2.00;;;;;;;33.99;34.37;98359.22;5030748;28;20030;-75
2023/06/26 11:16:08;;;;;;;4.25;1.80;;;;;;;33.91;34.00;98354.41;5033798;28;20520;-75
2023/06/26 11:18:33;;;;;;;3.35;1.70;;;;;;;33.84;34.21;98354.69;5034977;28;20357;-75
2023/06/26 11:21:13;;;;;;;4.78;1.77;;;;;;;33.77;34.17;98351.50;5035080;28;20499;-76
2023/06/26 11:23:39;;;;;;;6.78;2.00;;;;;;;33.74;34.65;98346.63;5034831;28;20031;-76
2023/06/26 11:26:18;;;;;;;5.65;1.88;;;;;;;33.62;34.39;98336.91;5018355;28;20408;-77
2023/06/26 11:28:50;;;;;;;4.95;2.08;;;;;;;33.54;34.65;98332.06;5034765;28;20192;-76
2023/06/26 11:31:32;;;;;;;2.97;1.70;;;;;;;33.52;34.85;98331.53;5018360;28;20087;-75